Time;durP1;ratioP1;P1;durP2;ratioP2;P2;SDS_P1;SDS_P2;PMS_P1;PMS_P2;Temp;Humidity;BMP_temperature;BMP_pressure;BME280_temperature;BME280_humidity;BME280_pressure;Samples;Min_cycle;Max_cycle;Signal;HPM_P1;HPM_P2
2021/10/21 00:01:47;;;;;;;5.00;4.50;;;;;;;16.17;73.93;95601.25;4996078;28;20054;-78
2021/10/21 00:04:15;;;;;;;4.30;3.88;;;;;;;16.10;69.63;95586.69;4995732;28;20078;-79
2021/10/21 00:06:42;;;;;;;4.43;4.03;;;;;;;16.06;72.67;95568.75;4995990;28;20295;-79
2021/10/21 00:09:10;;;;;;;5.53;4.63;;;;;;;16.03;69.64;95571.88;4995509;28;20105;-78
2021/10/21 00:11:40;;;;;;;4.32;3.92;;;;;;;15.98;68.78;95592.03;5006550;28;20065;-77
2021/10/21 00:14:09;;;;;;;5.97;4.15;;;;;;;15.94;70.05;95589.09;5018684;28;20122;-79
2021/10/21 00:16:36;;;;;;;5.38;4.43;;;;;;;15.96;72.35;95588.84;5018809;28;20042;-77
2021/10/21 00:19:04;;;;;;;6.15;4.65;;;;;;;15.95;73.30;95584.63;5016511;28;20046;-78
2021/10/21 00:21:32;;;;;;;6.22;4.57;;;;;;;15.94;73.08;95561.97;5019205;28;20054;-78
2021/10/21 00:23:59;;;;;;;7.20;4.65;;;;;;;15.84;71.52;95565.25;5018740;28;20050;-78
2021/10/21 00:26:27;;;;;;;5.38;4.53;;;;;;;15.78;71.67;95550.44;5011167;28;20054;-78
2021/10/21 00:28:55;;;;;;;7.55;4.68;;;;;;;15.72;71.99;95546.97;4995531;28;20069;-78
2021/10/21 00:31:23;;;;;;;8.35;4.80;;;;;;;15.67;73.53;95559.97;4995473;28;20055;-78
2021/10/21 00:33:51;;;;;;;6.20;4.85;;;;;;;15.63;72.51;95549.16;4995366;28;20500;-78
2021/10/21 00:36:18;;;;;;;8.32;5.35;;;;;;;15.57;72.59;95544.84;4995948;28;20043;-78
2021/10/21 00:38:46;;;;;;;7.20;5.05;;;;;;;15.53;72.81;95521.91;4995419;28;20117;-79
2021/10/21 00:41:14;;;;;;;9.02;4.85;;;;;;;15.46;73.32;95543.09;4995624;28;20050;-79
2021/10/21 00:43:42;;;;;;;6.18;5.50;;;;;;;15.42;77.29;95537.50;4995342;28;20070;-78
2021/10/21 00:46:12;;;;;;;8.52;5.57;;;;;;;15.39;75.36;95516.16;5017358;28;20039;-78
2021/10/21 00:48:41;;;;;;;5.57;4.85;;;;;;;15.32;74.84;95524.19;5018771;28;20093;-80
2021/10/21 00:51:15;;;;;;;6.97;5.53;;;;;;;15.31;78.43;95521.81;5018985;28;20056;-78
2021/10/21 00:53:43;;;;;;;6.50;4.78;;;;;;;15.27;76.51;95524.13;5018571;28;20047;-78
2021/10/21 00:56:13;;;;;;;5.90;5.30;;;;;;;15.24;76.63;95520.16;5008830;28;20061;-78
2021/10/21 00:58:42;;;;;;;6.30;5.70;;;;;;;15.26;79.19;95506.75;4994901;28;20476;-78
2021/10/21 01:01:11;;;;;;;7.05;5.68;;;;;;;15.25;78.76;95521.72;4995226;28;20061;-78
2021/10/21 01:03:39;;;;;;;8.00;7.20;;;;;;;15.27;80.75;95526.75;4995341;28;20050;-78
2021/10/21 01:06:06;;;;;;;7.22;5.85;;;;;;;15.28;79.72;95519.66;4995187;28;20042;-79
2021/10/21 01:08:34;;;;;;;6.55;5.25;;;;;;;15.24;78.50;95504.38;4993810;28;20054;-79
2021/10/21 01:11:02;;;;;;;6.55;5.30;;;;;;;15.17;77.59;95503.72;4994982;28;20051;-79
2021/10/21 01:13:30;;;;;;;7.00;5.45;;;;;;;15.09;77.38;95477.88;4994722;28;20543;-78
2021/10/21 01:16:04;;;;;;;5.82;4.80;;;;;;;14.99;77.89;95481.09;4994667;28;20050;-79
2021/10/21 01:18:34;;;;;;;7.47;5.03;;;;;;;14.90;77.81;95486.97;4994350;28;20056;-81
2021/10/21 01:21:04;;;;;;;5.85;4.60;;;;;;;14.84;78.19;95489.50;4994446;28;20060;-79
2021/10/21 01:23:32;;;;;;;7.57;5.93;;;;;;;14.87;80.20;95492.69;4994525;28;20527;-79
2021/10/21 01:26:00;;;;;;;8.02;5.47;;;;;;;14.83;79.18;95466.13;4994589;28;20046;-79
2021/10/21 01:28:27;;;;;;;7.18;5.68;;;;;;;14.81;81.12;95474.22;4994265;28;20061;-78
2021/10/21 01:30:55;;;;;;;6.13;4.78;;;;;;;14.78;79.91;95447.63;5003767;28;20040;-79
2021/10/21 01:33:23;;;;;;;5.60;4.95;;;;;;;14.73;80.83;95442.31;5018577;28;20043;-79
2021/10/21 01:35:51;;;;;;;4.50;4.10;;;;;;;14.71;80.33;95428.63;5012821;28;20065;-79
2021/10/21 01:38:20;;;;;;;7.25;5.72;;;;;;;14.67;79.66;95430.13;4997338;28;20058;-79
2021/10/21 01:40:47;;;;;;;7.45;6.22;;;;;;;14.64;81.50;95415.66;4996997;28;20081;-79
2021/10/21 01:43:15;;;;;;;8.85;6.00;;;;;;;14.67;82.61;95394.19;4996990;28;20061;-79
2021/10/21 01:45:43;;;;;;;6.75;5.35;;;;;;;14.67;82.39;95388.94;4996069;28;20420;-79
2021/10/21 01:48:11;;;;;;;6.28;5.68;;;;;;;14.67;82.40;95382.88;4995756;28;20054;-79
2021/10/21 01:50:38;;;;;;;7.72;6.80;;;;;;;14.65;83.44;95380.50;4994539;28;20055;-79
2021/10/21 01:53:06;;;;;;;7.22;5.97;;;;;;;14.61;82.66;95393.31;4994525;28;20053;-79
2021/10/21 01:55:35;;;;;;;8.90;6.63;;;;;;;14.61;84.10;95392.50;4994176;28;20058;-79
2021/10/21 01:58:02;;;;;;;9.65;7.85;;;;;;;14.63;84.38;95390.44;4994353;28;20054;-79
2021/10/21 02:00:30;;;;;;;7.38;5.85;;;;;;;14.57;82.75;95383.53;4993811;28;20496;-79
2021/10/21 02:02:58;;;;;;;6.82;5.35;;;;;;;14.48;81.87;95388.31;4993754;28;20046;-79
2021/10/21 02:05:25;;;;;;;5.57;5.07;;;;;;;14.46;81.66;95397.47;4993614;28;20058;-78
2021/10/21 02:07:53;;;;;;;6.88;5.68;;;;;;;14.41;81.24;95364.84;4993667;28;20532;-79
2021/10/21 02:10:21;;;;;;;6.47;5.40;;;;;;;14.38;81.12;95344.31;4993386;28;20432;-79
2021/10/21 02:12:50;;;;;;;5.18;4.68;;;;;;;14.36;80.80;95325.41;4993645;28;20076;-79
2021/10/21 02:15:18;;;;;;;7.78;5.75;;;;;;;14.39;82.36;95338.06;4993487;28;20050;-79
2021/10/21 02:17:46;;;;;;;4.50;4.10;;;;;;;14.42;81.60;95345.44;4993661;28;20062;-79
2021/10/21 02:20:15;;;;;;;9.77;6.20;;;;;;;14.48;83.49;95333.22;4993445;28;20050;-79
2021/10/21 02:22:43;;;;;;;7.72;4.43;;;;;;;14.50;82.91;95330.38;4993729;28;20467;-79
2021/10/21 02:25:12;;;;;;;5.20;4.70;;;;;;;14.50;82.67;95317.25;4993634;28;20054;-79
2021/10/21 02:27:40;;;;;;;7.38;5.40;;;;;;;14.56;83.99;95311.06;4993566;28;20046;-79
2021/10/21 02:30:12;;;;;;;4.50;4.07;;;;;;;14.61;84.31;95303.28;4992872;28;20504;-79
2021/10/21 02:32:41;;;;;;;5.05;4.38;;;;;;;14.66;84.00;95308.59;4993532;28;20054;-79
2021/10/21 02:35:11;;;;;;;3.90;3.15;;;;;;;14.69;82.81;95304.69;4993409;28;20054;-79
2021/10/21 02:37:39;;;;;;;5.60;4.15;;;;;;;14.71;83.21;95310.50;4993155;28;20050;-79
2021/10/21 02:40:09;;;;;;;6.00;4.65;;;;;;;14.68;82.18;95306.53;4993054;28;20054;-79
2021/10/21 02:42:37;;;;;;;6.22;5.18;;;;;;;14.63;81.56;95298.59;4992914;28;20531;-79
2021/10/21 02:45:05;;;;;;;6.05;4.97;;;;;;;14.56;80.91;95296.13;4993149;28;20054;-79
2021/10/21 02:47:34;;;;;;;7.32;5.13;;;;;;;14.48;81.22;95279.97;4993030;28;20053;-79
2021/10/21 02:50:02;;;;;;;5.03;4.15;;;;;;;14.41;81.00;95249.44;4992652;28;20050;-79
2021/10/21 02:52:29;;;;;;;5.78;4.90;;;;;;;14.33;80.83;95205.22;4993213;28;20061;-79
2021/10/21 02:54:57;;;;;;;5.75;5.15;;;;;;;14.27;81.94;95208.78;4992991;28;20501;-79
2021/10/21 02:57:24;;;;;;;8.57;5.88;;;;;;;14.25;82.09;95218.72;4992939;28;20050;-79
2021/10/21 02:59:51;;;;;;;6.60;5.90;;;;;;;14.23;82.31;95231.28;4992926;28;20057;-79
2021/10/21 03:02:19;;;;;;;6.38;5.53;;;;;;;14.21;82.72;95225.47;4993062;28;20054;-79
2021/10/21 03:04:48;;;;;;;8.75;6.15;;;;;;;14.23;82.94;95226.03;4992929;28;20061;-79
2021/10/21 03:07:16;;;;;;;8.18;5.93;;;;;;;14.24;83.49;95243.38;4992897;28;20046;-79
2021/10/21 03:09:43;;;;;;;6.50;5.55;;;;;;;14.24;83.23;95243.38;4993269;28;20061;-79
2021/10/21 03:12:11;;;;;;;7.70;6.35;;;;;;;14.25;83.84;95250.19;4992942;28;20424;-79
2021/10/21 03:14:38;;;;;;;8.23;6.15;;;;;;;14.30;84.64;95245.06;4992462;28;20062;-79
2021/10/21 03:17:07;;;;;;;8.07;6.40;;;;;;;14.31;83.79;95230.91;4992852;28;20247;-79
2021/10/21 03:19:35;;;;;;;6.47;5.75;;;;;;;14.30;83.76;95231.94;4992480;28;20061;-79
2021/10/21 03:22:03;;;;;;;8.85;6.97;;;;;;;14.32;84.00;95218.56;4992711;28;20058;-79
2021/10/21 03:24:31;;;;;;;6.80;6.10;;;;;;;14.30;83.41;95221.44;4992564;28;20066;-79
2021/10/21 03:26:59;;;;;;;6.43;5.78;;;;;;;14.28;83.67;95204.34;4992698;28;20051;-79
2021/10/21 03:29:26;;;;;;;11.15;7.38;;;;;;;14.26;84.69;95183.63;4992414;28;20054;-79
2021/10/21 03:31:54;;;;;;;9.95;7.03;;;;;;;14.21;84.26;95176.47;4994884;28;20061;-79
2021/10/21 03:34:21;;;;;;;6.97;6.03;;;;;;;14.16;84.14;95172.97;4996377;28;20046;-79
2021/10/21 03:36:49;;;;;;;7.68;6.50;;;;;;;14.15;84.23;95192.38;4996797;28;20055;-79
2021/10/21 03:39:18;;;;;;;7.05;6.32;;;;;;;14.15;83.62;95202.84;4996457;28;20046;-79
2021/10/21 03:41:46;;;;;;;8.85;7.00;;;;;;;14.16;84.74;95209.66;4996524;28;20058;-79
2021/10/21 03:44:13;;;;;;;9.00;6.57;;;;;;;14.18;84.59;95212.84;4996193;28;20062;-79
2021/10/21 03:46:41;;;;;;;5.97;5.40;;;;;;;14.19;83.55;95224.91;4996430;28;20060;-79
2021/10/21 03:49:09;;;;;;;10.20;5.93;;;;;;;14.21;84.38;95217.59;4995911;28;20579;-79
2021/10/21 03:51:37;;;;;;;7.03;5.93;;;;;;;14.24;84.30;95217.16;4996103;28;20498;-79
2021/10/21 03:54:04;;;;;;;7.65;5.15;;;;;;;14.25;83.38;95234.47;4996130;28;20061;-79
2021/10/21 03:56:33;;;;;;;6.45;5.85;;;;;;;14.28;83.50;95262.03;4996428;28;20057;-80
2021/10/21 03:59:00;;;;;;;7.38;6.40;;;;;;;14.29;83.40;95266.25;4996076;28;20050;-79
2021/10/21 04:01:28;;;;;;;7.32;5.85;;;;;;;14.30;83.64;95283.59;4996282;28;20054;-79
2021/10/21 04:03:56;;;;;;;7.22;6.38;;;;;;;14.30;84.57;95270.47;4995659;28;20058;-79
2021/10/21 04:06:23;;;;;;;6.15;5.38;;;;;;;14.31;84.76;95265.00;4995949;28;20411;-78
2021/10/21 04:08:51;;;;;;;6.68;4.80;;;;;;;14.34;84.81;95274.22;4995552;28;20046;-79
2021/10/21 04:11:18;;;;;;;5.43;4.50;;;;;;;14.37;84.14;95273.75;4995894;28;20050;-79
2021/10/21 04:13:47;;;;;;;6.93;5.50;;;;;;;14.40;84.35;95276.69;4995762;28;20440;-79
2021/10/21 04:16:15;;;;;;;6.35;4.40;;;;;;;14.45;84.55;95290.91;4995865;28;20121;-79
2021/10/21 04:18:42;;;;;;;3.88;3.53;;;;;;;14.46;83.50;95303.00;4995544;28;20052;-79
2021/10/21 04:21:11;;;;;;;4.82;3.97;;;;;;;14.51;82.89;95295.22;4996035;28;20437;-79
2021/10/21 04:23:39;;;;;;;4.07;3.65;;;;;;;14.54;83.08;95302.59;4995908;28;20061;-79
2021/10/21 04:26:06;;;;;;;4.13;3.60;;;;;;;14.55;83.25;95318.16;4995688;28;20069;-79
2021/10/21 04:28:34;;;;;;;5.47;3.63;;;;;;;14.59;82.30;95313.22;4995583;28;20053;-79
2021/10/21 04:31:03;;;;;;;3.83;3.53;;;;;;;14.63;82.44;95317.75;4996021;28;20409;-79
2021/10/21 04:33:31;;;;;;;5.55;2.78;;;;;;;14.65;81.04;95321.97;4995787;28;20575;-79
2021/10/21 04:35:58;;;;;;;3.45;2.10;;;;;;;14.68;81.33;95332.78;4995567;28;20492;-79
2021/10/21 04:38:26;;;;;;;2.85;2.30;;;;;;;14.70;81.39;95335.97;4995020;28;20072;-79
2021/10/21 04:40:54;;;;;;;1.90;1.65;;;;;;;14.70;80.67;95325.47;4995417;28;20046;-79
2021/10/21 04:43:22;;;;;;;2.03;1.40;;;;;;;14.71;79.72;95329.66;4993888;28;20054;-79
2021/10/21 04:45:49;;;;;;;1.38;1.08;;;;;;;14.72;77.75;95336.53;4995008;28;20532;-79
2021/10/21 04:48:18;;;;;;;4.15;2.22;;;;;;;14.76;78.74;95360.47;4995182;28;20602;-79
2021/10/21 04:50:46;;;;;;;1.02;0.93;;;;;;;14.75;77.52;95343.91;4995433;28;20066;-79
2021/10/21 04:53:14;;;;;;;2.45;0.98;;;;;;;14.76;78.07;95363.91;4995241;28;20067;-79
2021/10/21 04:55:41;;;;;;;1.27;0.52;;;;;;;14.74;76.44;95337.09;4995506;28;20046;-82
2021/10/21 04:58:09;;;;;;;1.35;0.73;;;;;;;14.75;76.28;95343.91;4996251;28;20054;-82
2021/10/21 05:00:37;;;;;;;1.38;0.55;;;;;;;14.74;75.60;95358.09;4996711;28;20054;-82
2021/10/21 05:03:09;;;;;;;0.98;0.50;;;;;;;14.72;73.34;95354.13;4996475;28;20149;-77
2021/10/21 05:05:38;;;;;;;1.58;0.40;;;;;;;14.69;74.23;95360.59;4994745;28;20051;-77
2021/10/21 05:08:06;;;;;;;2.75;0.60;;;;;;;14.68;75.01;95343.28;4995005;28;20452;-75
2021/10/21 05:10:33;;;;;;;2.28;0.80;;;;;;;14.68;75.11;95353.00;4994668;28;20054;-80
2021/10/21 05:13:01;;;;;;;0.85;0.40;;;;;;;14.66;74.97;95366.34;4994881;28;20050;-79
2021/10/21 05:15:29;;;;;;;3.08;0.60;;;;;;;14.63;74.00;95364.22;4994778;28;20053;-79
2021/10/21 05:17:56;;;;;;;1.42;0.60;;;;;;;14.60;73.31;95367.28;4994609;28;20047;-80
2021/10/21 05:20:24;;;;;;;4.47;0.75;;;;;;;14.55;73.44;95375.09;5011020;28;20056;-77
2021/10/21 05:22:53;;;;;;;2.78;0.38;;;;;;;14.51;72.66;95368.69;5018392;28;20034;-78
2021/10/21 05:25:20;;;;;;;1.70;0.70;;;;;;;14.48;72.28;95390.16;5015219;28;20050;-78
2021/10/21 05:27:47;;;;;;;1.98;0.60;;;;;;;14.45;73.56;95390.63;4997519;28;20065;-78
2021/10/21 05:30:15;;;;;;;3.50;0.60;;;;;;;14.41;74.26;95380.59;4996691;28;20054;-78
2021/10/21 05:32:43;;;;;;;2.78;0.55;;;;;;;14.38;72.65;95375.03;4995937;28;20515;-78
2021/10/21 05:35:10;;;;;;;1.88;0.60;;;;;;;14.35;73.48;95396.50;4996604;28;20047;-82
2021/10/21 05:37:38;;;;;;;12.80;0.98;;;;;;;14.34;73.65;95395.69;4995291;28;20057;-81
2021/10/21 05:40:08;;;;;;;1.27;0.60;;;;;;;14.32;72.33;95413.50;4994310;28;20386;-79
2021/10/21 05:42:35;;;;;;;1.83;0.95;;;;;;;14.33;72.48;95407.19;4995038;28;20046;-78
2021/10/21 05:45:04;;;;;;;1.70;0.50;;;;;;;14.34;72.80;95411.44;4994301;28;20424;-79
2021/10/21 05:47:31;;;;;;;2.08;0.80;;;;;;;14.35;73.66;95407.75;4994565;28;20058;-79
2021/10/21 05:49:59;;;;;;;1.23;0.50;;;;;;;14.35;73.07;95415.63;4994206;28;20054;-76
2021/10/21 05:52:26;;;;;;;2.65;0.75;;;;;;;14.34;74.46;95406.19;4994456;28;20054;-78
2021/10/21 05:54:54;;;;;;;2.28;0.50;;;;;;;14.36;75.23;95404.09;4994091;28;20050;-78
2021/10/21 05:57:23;;;;;;;1.77;0.98;;;;;;;14.37;74.66;95418.03;4994427;28;20051;-78
2021/10/21 05:59:50;;;;;;;3.95;0.50;;;;;;;14.35;73.64;95433.22;4994505;28;20051;-78
2021/10/21 06:02:18;;;;;;;5.35;1.02;;;;;;;14.30;73.39;95417.34;4995303;28;20459;-79
2021/10/21 06:04:46;;;;;;;1.23;0.55;;;;;;;14.25;73.52;95439.03;4992144;28;20061;-79
2021/10/21 06:07:14;;;;;;;3.58;0.65;;;;;;;14.20;72.17;95459.94;4993396;28;20054;-79
2021/10/21 06:09:42;;;;;;;4.20;0.88;;;;;;;14.16;71.26;95451.72;4997209;28;20046;-79
2021/10/21 06:12:10;;;;;;;2.50;0.57;;;;;;;14.14;72.62;95473.97;4998672;28;20046;-79
2021/10/21 06:14:39;;;;;;;3.95;0.77;;;;;;;14.10;70.45;95494.63;4997961;28;20047;-79
2021/10/21 06:17:06;;;;;;;4.72;0.95;;;;;;;14.04;66.44;95489.47;4994757;28;20452;-79
2021/10/21 06:19:34;;;;;;;7.38;0.88;;;;;;;13.99;67.96;95496.25;4993508;28;20428;-79
2021/10/21 06:22:05;;;;;;;4.22;0.73;;;;;;;13.95;70.16;95508.22;4994490;28;20054;-78
2021/10/21 06:24:33;;;;;;;5.32;0.90;;;;;;;13.93;69.89;95502.41;4995105;28;20046;-79
2021/10/21 06:27:00;;;;;;;5.57;1.20;;;;;;;13.93;69.66;95505.03;4994331;28;20054;-79
2021/10/21 06:29:28;;;;;;;4.25;0.90;;;;;;;13.89;70.35;95511.75;4993138;28;20412;-78
2021/10/21 06:32:00;;;;;;;7.22;0.85;;;;;;;13.85;69.42;95528.94;4993579;28;20054;-78
2021/10/21 06:34:29;;;;;;;9.63;1.42;;;;;;;13.81;69.86;95539.09;4993642;28;20056;-79
2021/10/21 06:36:56;;;;;;;3.47;0.57;;;;;;;13.80;69.91;95520.97;4993557;28;20054;-79
2021/10/21 06:39:24;;;;;;;5.25;1.00;;;;;;;13.77;67.88;95552.88;4993197;28;20057;-78
2021/10/21 06:41:51;;;;;;;7.22;0.82;;;;;;;13.73;65.46;95562.22;4993805;28;20054;-79
2021/10/21 06:44:19;;;;;;;4.75;0.82;;;;;;;13.70;67.78;95567.91;4993016;28;20050;-79
2021/10/21 06:46:47;;;;;;;3.83;1.02;;;;;;;13.69;68.89;95587.31;4993663;28;20050;-79
2021/10/21 06:49:16;;;;;;;8.07;1.35;;;;;;;13.68;70.61;95585.69;4993188;28;20492;-79
2021/10/21 06:51:43;;;;;;;6.25;0.70;;;;;;;13.62;69.37;95597.84;4993359;28;20057;-79
2021/10/21 06:54:11;;;;;;;4.93;0.75;;;;;;;13.59;66.14;95577.34;4993274;28;20058;-79
2021/10/21 06:56:38;;;;;;;10.88;1.40;;;;;;;13.58;68.81;95589.66;4993415;28;20058;-79
2021/10/21 06:59:06;;;;;;;5.90;1.10;;;;;;;13.59;69.64;95609.59;4992874;28;20042;-79
2021/10/21 07:01:33;;;;;;;4.70;1.25;;;;;;;13.59;68.75;95583.38;4993583;28;20057;-79
2021/10/21 07:04:03;;;;;;;5.00;1.10;;;;;;;13.64;66.08;95584.53;4993313;28;20101;-79
2021/10/21 07:06:32;;;;;;;3.97;0.65;;;;;;;13.69;68.34;95582.06;4992484;28;20042;-79
2021/10/21 07:08:59;;;;;;;4.57;0.70;;;;;;;13.76;67.54;95586.16;4992974;28;20054;-78
2021/10/21 07:11:27;;;;;;;4.35;1.30;;;;;;;13.80;64.25;95599.63;4993067;28;20050;-79
2021/10/21 07:13:54;;;;;;;4.75;0.88;;;;;;;13.93;66.94;95603.84;4993062;28;20046;-77
2021/10/21 07:16:22;;;;;;;5.93;1.02;;;;;;;14.05;67.41;95622.19;4993091;28;20054;-79
2021/10/21 07:18:50;;;;;;;5.80;1.17;;;;;;;14.11;65.62;95631.78;4993213;28;20054;-79
2021/10/21 07:21:18;;;;;;;6.22;1.17;;;;;;;14.17;65.67;95651.88;4992908;28;20511;-79
2021/10/21 07:23:48;;;;;;;4.10;0.75;;;;;;;14.26;63.34;95639.22;4992826;28;20054;-79
2021/10/21 07:26:16;;;;;;;7.00;0.77;;;;;;;14.36;63.83;95665.66;4992709;28;20050;-79
2021/10/21 07:28:44;;;;;;;5.28;0.95;;;;;;;14.48;60.26;95655.16;4992963;28;20050;-79
2021/10/21 07:31:15;;;;;;;8.32;1.02;;;;;;;14.63;61.34;95660.78;4992839;28;20420;-79
2021/10/21 07:33:43;;;;;;;6.30;1.10;;;;;;;14.81;63.38;95679.00;4992853;28;20054;-79
2021/10/21 07:36:10;;;;;;;7.28;0.70;;;;;;;14.93;63.94;95678.97;4993049;28;20073;-79
2021/10/21 07:38:38;;;;;;;7.68;1.10;;;;;;;15.07;62.26;95692.66;4992434;28;20050;-79
2021/10/21 07:41:07;;;;;;;5.30;0.60;;;;;;;15.18;61.29;95688.41;4993012;28;20096;-79
2021/10/21 07:43:35;;;;;;;5.47;0.70;;;;;;;15.23;58.92;95685.88;4992874;28;20054;-79
2021/10/21 07:46:03;;;;;;;7.22;0.90;;;;;;;15.29;62.30;95686.78;4992854;28;20054;-79
2021/10/21 07:48:31;;;;;;;3.63;0.98;;;;;;;15.37;62.40;95707.41;4992835;28;20401;-79
2021/10/21 07:50:58;;;;;;;5.93;1.15;;;;;;;15.37;59.22;95702.16;4992588;28;20046;-79
2021/10/21 07:53:27;;;;;;;10.35;1.13;;;;;;;15.33;58.29;95727.34;4992769;28;20054;-79
2021/10/21 07:55:56;;;;;;;5.78;0.95;;;;;;;15.28;61.50;95735.88;4992918;28;20050;-79
2021/10/21 07:58:25;;;;;;;12.50;1.13;;;;;;;15.21;62.21;95751.78;4992433;28;20054;-79
2021/10/21 08:00:52;;;;;;;3.60;0.60;;;;;;;15.11;60.65;95746.34;4992686;28;20061;-79
2021/10/21 08:03:20;;;;;;;7.40;1.15;;;;;;;14.99;59.80;95741.06;4992975;28;20491;-79
2021/10/21 08:05:48;;;;;;;3.20;0.55;;;;;;;14.91;59.50;95761.63;4992792;28;20101;-79
2021/10/21 08:08:16;;;;;;;7.55;0.90;;;;;;;14.82;62.01;95777.75;4992839;28;20054;-79
2021/10/21 08:10:43;;;;;;;3.92;0.98;;;;;;;14.74;63.92;95783.34;4993219;28;20420;-78
2021/10/21 08:13:13;;;;;;;8.68;0.82;;;;;;;14.71;64.35;95791.66;4992906;28;20491;-79
2021/10/21 08:15:45;;;;;;;6.63;0.93;;;;;;;14.64;62.91;95798.84;4992490;28;20046;-79
2021/10/21 08:18:13;;;;;;;6.03;1.00;;;;;;;14.56;60.54;95796.53;4994782;28;20058;-79
2021/10/21 08:20:42;;;;;;;2.95;0.93;;;;;;;14.46;63.21;95796.28;4995937;28;20046;-79
2021/10/21 08:23:10;;;;;;;5.82;1.63;;;;;;;14.36;62.45;95825.69;4995926;28;20048;-79
2021/10/21 08:25:37;;;;;;;5.85;0.80;;;;;;;14.25;61.42;95829.88;4996482;28;20054;-79
2021/10/21 08:28:05;;;;;;;5.82;0.68;;;;;;;14.20;62.48;95840.25;5001433;28;20523;-79
2021/10/21 08:30:36;;;;;;;7.82;1.27;;;;;;;14.13;61.14;95829.84;4997773;28;20046;-79
2021/10/21 08:33:07;;;;;;;4.47;1.10;;;;;;;14.12;63.91;95854.47;4996900;28;20058;-79
2021/10/21 08:35:34;;;;;;;6.47;1.65;;;;;;;14.07;63.46;95861.41;4996033;28;20070;-78
2021/10/21 08:38:03;;;;;;;2.13;0.35;;;;;;;14.04;65.31;95860.03;4995814;28;20053;-79
2021/10/21 08:40:32;;;;;;;3.42;1.05;;;;;;;14.05;65.84;95874.72;4995415;28;20500;-79
2021/10/21 08:43:01;;;;;;;5.15;0.90;;;;;;;14.01;60.21;95869.16;4995182;28;20050;-79
2021/10/21 08:45:28;;;;;;;4.57;0.40;;;;;;;14.00;62.45;95899.00;4995589;28;20061;-79
2021/10/21 08:48:01;;;;;;;6.15;0.88;;;;;;;13.95;63.61;95891.00;4995559;28;20046;-79
2021/10/21 08:50:30;;;;;;;;;;;;;;;13.92;63.01;95886.19;4995367;28;20050;-79
2021/10/21 08:52:57;;;;;;;1.98;0.40;;;;;;;13.85;63.99;95901.19;4995503;28;19922;-79
2021/10/21 08:55:25;;;;;;;1.75;0.50;;;;;;;13.85;64.85;95916.91;4994938;28;20046;-79
2021/10/21 08:57:52;;;;;;;1.65;0.57;;;;;;;13.86;65.40;95912.47;4995424;28;20077;-79
2021/10/21 09:00:20;;;;;;;2.92;0.93;;;;;;;13.84;64.18;95927.63;4995190;28;20043;-78
2021/10/21 09:02:52;;;;;;;1.90;0.28;;;;;;;13.81;63.31;95924.41;4995220;28;20046;-79
2021/10/21 09:05:28;;;;;;;1.55;0.38;;;;;;;13.75;63.18;95932.34;4994955;28;20109;-78
2021/10/21 09:08:05;;;;;;;1.58;0.30;;;;;;;13.73;62.12;95947.50;4995599;28;20062;-79
2021/10/21 09:10:33;;;;;;;3.28;0.30;;;;;;;13.68;64.30;95942.91;4994874;28;20054;-79
2021/10/21 09:13:01;;;;;;;5.63;0.85;;;;;;;13.69;63.02;95962.88;4994826;28;20512;-79
2021/10/21 09:15:29;;;;;;;2.45;0.22;;;;;;;13.68;61.07;95955.22;4994618;28;20050;-78
2021/10/21 09:17:56;;;;;;;2.17;0.70;;;;;;;13.67;61.67;95961.50;5017472;28;20064;-78
2021/10/21 09:20:32;;;;;;;0.52;0.20;;;;;;;13.64;62.49;95983.66;5018282;28;20506;-78
2021/10/21 09:23:02;;;;;;;1.85;0.25;;;;;;;13.63;63.72;95983.91;5008222;28;20047;-79
2021/10/21 09:25:30;;;;;;;1.90;0.50;;;;;;;13.58;63.49;95992.41;4995307;28;20056;-79
2021/10/21 09:27:59;;;;;;;1.40;0.25;;;;;;;13.57;66.25;96004.69;5009200;28;20042;-79
2021/10/21 09:30:28;;;;;;;2.70;0.20;;;;;;;13.54;60.54;96010.38;5017500;28;20026;-79
2021/10/21 09:33:01;;;;;;;2.08;0.40;;;;;;;13.50;59.83;96014.44;5018656;28;20026;-78
2021/10/21 09:35:29;;;;;;;2.13;0.30;;;;;;;13.47;59.30;96014.03;5018485;28;20034;-78
2021/10/21 09:37:57;;;;;;;2.08;0.35;;;;;;;13.46;62.99;96018.50;5018008;28;20054;-78
2021/10/21 09:40:30;;;;;;;5.82;0.57;;;;;;;13.44;59.40;96036.25;5017687;28;20046;-78
2021/10/21 09:43:02;;;;;;;1.45;0.20;;;;;;;13.45;62.14;96034.44;5004606;28;20123;-79
2021/10/21 09:45:34;;;;;;;1.07;0.23;;;;;;;13.43;61.51;96031.22;4994723;28;20061;-79
2021/10/21 09:48:04;;;;;;;1.88;0.82;;;;;;;13.40;61.77;96061.25;4995205;28;20275;-78
2021/10/21 09:50:35;;;;;;;5.40;0.60;;;;;;;13.36;58.51;96060.91;4994251;28;20073;-79
2021/10/21 09:53:18;;;;;;;1.92;0.22;;;;;;;13.32;59.26;96074.63;4994398;28;20061;-78
2021/10/21 09:55:46;;;;;;;;;;;;;;;13.27;58.47;96084.88;4994502;28;20424;-79
2021/10/21 09:58:17;;;;;;;1.08;0.30;;;;;;;13.16;64.13;96092.44;4994344;28;19922;-79
2021/10/21 10:00:45;;;;;;;4.35;0.45;;;;;;;13.09;60.71;96094.25;5002966;28;20049;-78
2021/10/21 10:03:15;;;;;;;2.50;0.35;;;;;;;13.06;63.43;96105.16;5017974;28;20038;-78
2021/10/21 10:05:43;;;;;;;2.70;0.20;;;;;;;13.04;61.96;96093.28;5017463;28;20054;-78
2021/10/21 10:08:12;;;;;;;2.97;0.57;;;;;;;13.02;61.86;96138.00;5017590;28;20030;-76
2021/10/21 10:10:42;;;;;;;2.63;0.20;;;;;;;13.00;61.34;96124.31;5016253;28;20054;-78
2021/10/21 10:13:11;;;;;;;0.43;0.10;;;;;;;12.99;62.04;96128.75;4997663;28;20054;-77
2021/10/21 10:15:44;;;;;;;0.93;0.13;;;;;;;13.00;59.37;96134.78;4993694;28;20135;-78
2021/10/21 10:18:16;;;;;;;2.10;0.20;;;;;;;12.95;58.30;96143.28;5019598;23;20057;-77
2021/10/21 10:21:06;;;;;;;1.48;0.45;;;;;;;12.94;62.69;96125.13;5017935;28;20053;-77
2021/10/21 10:23:35;;;;;;;1.88;0.28;;;;;;;12.91;62.57;96143.91;5017300;28;20064;-77
2021/10/21 10:26:03;;;;;;;0.20;0.10;;;;;;;12.89;60.19;96132.81;5018145;28;20050;-77
2021/10/21 10:28:53;;;;;;;1.50;0.15;;;;;;;12.86;57.75;96148.97;5018018;28;20049;-78
2021/10/21 10:31:41;;;;;;;0.32;0.15;;;;;;;12.86;58.97;96154.19;5017235;28;20038;-78
2021/10/21 10:34:10;;;;;;;1.45;0.30;;;;;;;12.81;63.81;96159.22;5017993;28;20050;-77
2021/10/21 10:36:37;;;;;;;0.47;0.28;;;;;;;12.77;61.45;96158.84;5017613;28;20077;-77
2021/10/21 10:39:06;;;;;;;0.60;0.20;;;;;;;12.75;66.19;96160.88;5016960;28;20050;-77
2021/10/21 10:41:53;;;;;;;0.55;0.55;;;;;;;12.74;60.33;96157.41;5017005;28;20045;-76
2021/10/21 10:44:58;;;;;;;0.73;0.40;;;;;;;12.82;59.68;96171.31;5016374;28;20054;-78
2021/10/21 10:47:45;;;;;;;1.67;0.10;;;;;;;12.89;59.59;96169.47;5017317;28;20054;-77
2021/10/21 10:50:18;;;;;;;2.40;0.35;;;;;;;12.97;60.89;96166.63;5016283;28;20526;-79
2021/10/21 10:52:51;;;;;;;2.40;0.50;;;;;;;13.14;59.27;96169.56;5016873;28;20431;-78
2021/10/21 10:55:20;;;;;;;2.38;0.77;;;;;;;13.47;64.29;96161.59;5016745;28;20061;-76
2021/10/21 10:57:57;;;;;;;1.90;0.40;;;;;;;13.67;64.02;96171.16;5018109;28;20084;-76
2021/10/21 11:00:45;;;;;;;1.08;0.30;;;;;;;13.97;54.59;96181.81;5018191;28;20330;-78
2021/10/21 11:03:16;;;;;;;0.35;0.20;;;;;;;14.43;57.22;96175.41;5017339;28;20058;-77
2021/10/21 11:05:54;;;;;;;1.38;0.35;;;;;;;15.09;59.08;96187.06;5018944;28;20050;-77
2021/10/21 11:08:21;;;;;;;0.73;0.40;;;;;;;15.65;59.45;96188.56;5020783;28;20046;-76
2021/10/21 11:10:54;;;;;;;1.35;0.30;;;;;;;16.06;58.23;96189.59;5021964;28;20057;-77
2021/10/21 11:13:40;;;;;;;1.42;0.30;;;;;;;16.54;49.26;96179.13;5019470;28;20056;-78
2021/10/21 11:16:53;;;;;;;0.55;0.22;;;;;;;17.09;55.39;96173.44;5017887;28;20046;-77
2021/10/21 11:19:48;;;;;;;1.13;0.20;;;;;;;17.67;47.08;96183.00;4990629;28;20062;-78
2021/10/21 11:22:37;;;;;;;1.25;0.30;;;;;;;18.14;43.78;96178.50;5017752;28;20052;-77
2021/10/21 11:25:07;;;;;;;0.50;0.20;;;;;;;18.39;48.33;96170.16;5019255;28;20057;-78
2021/10/21 11:27:37;;;;;;;0.60;0.20;;;;;;;18.73;49.24;96176.22;5019193;28;20045;-76
2021/10/21 11:30:20;;;;;;;3.42;0.20;;;;;;;19.01;42.21;96180.56;5018555;28;20523;-77
2021/10/21 11:33:06;;;;;;;0.38;0.10;;;;;;;19.32;46.99;96181.72;5018654;28;20561;-79
2021/10/21 11:35:37;;;;;;;1.50;0.20;;;;;;;19.58;48.23;96171.44;5017940;28;20352;-77
2021/10/21 11:38:06;;;;;;;0.32;0.13;;;;;;;19.88;46.86;96183.41;5017388;28;20076;-77
2021/10/21 11:40:35;;;;;;;1.10;0.10;;;;;;;20.19;44.35;96178.38;5017496;28;20049;-77
2021/10/21 11:43:05;;;;;;;1.10;0.20;;;;;;;20.44;47.33;96186.47;5017701;28;20507;-78
2021/10/21 11:45:36;;;;;;;2.25;0.30;;;;;;;20.74;45.18;96179.81;5019178;28;20050;-79